Time;durP1;ratioP1;P1;durP2;ratioP2;P2;SDS_P1;SDS_P2;PMS_P1;PMS_P2;Temp;Humidity;BMP_temperature;BMP_pressure;BME280_temperature;BME280_humidity;BME280_pressure;Samples;Min_cycle;Max_cycle;Signal;HPM_P1;HPM_P2
2024/04/16 00:00:25;;;;;;;5.60;3.90;;;;;;;10.29;100.00;99498.30;108118;1254;61788;-70
2024/04/16 00:02:52;;;;;;;8.50;3.90;;;;;;;10.32;100.00;99496.29;108072;1253;60267;-70
2024/04/16 00:05:19;;;;;;;8.70;4.00;;;;;;;10.33;100.00;99504.23;108182;1254;73773;-71
2024/04/16 00:07:46;;;;;;;7.50;4.00;;;;;;;10.34;100.00;99508.19;108110;1254;72621;-71
2024/04/16 00:10:13;;;;;;;5.60;3.80;;;;;;;10.37;100.00;99487.92;108136;1254;71265;-73
2024/04/16 00:12:40;;;;;;;5.40;3.20;;;;;;;10.40;100.00;99474.23;108167;1254;61969;-70
2024/04/16 00:15:19;;;;;;;5.80;3.40;;;;;;;10.38;100.00;99465.91;108096;1254;60415;-71
2024/04/16 00:17:46;;;;;;;5.90;2.90;;;;;;;10.37;100.00;99453.44;108027;1254;73769;-70
2024/04/16 00:20:13;;;;;;;6.00;3.40;;;;;;;10.33;100.00;99459.34;108053;1254;72523;-70
2024/04/16 00:22:41;;;;;;;5.50;3.40;;;;;;;10.31;100.00;99460.42;108178;1253;72638;-71
2024/04/16 00:25:08;;;;;;;6.80;3.50;;;;;;;10.33;100.00;99463.92;108144;1254;60606;-70
2024/04/16 00:27:35;;;;;;;6.00;3.90;;;;;;;10.38;100.00;99467.94;108156;1254;60440;-71
2024/04/16 00:30:03;;;;;;;6.00;3.70;;;;;;;10.43;100.00;99479.42;108087;1254;73718;-71
2024/04/16 00:32:30;;;;;;;7.50;3.70;;;;;;;10.45;100.00;99490.93;108107;1254;73746;-70
2024/04/16 00:34:57;;;;;;;6.80;3.40;;;;;;;10.49;100.00;99496.02;108277;1254;72671;-70
2024/04/16 00:37:24;;;;;;;6.50;3.30;;;;;;;10.51;100.00;99487.89;108130;1255;60487;-69
2024/04/16 00:39:51;;;;;;;6.90;3.40;;;;;;;10.52;100.00;99478.10;108187;1253;60377;-71
2024/04/16 00:42:17;;;;;;;7.20;3.20;;;;;;;10.55;100.00;99478.50;108186;1253;73792;-69
2024/04/16 00:44:44;;;;;;;7.00;3.20;;;;;;;10.58;100.00;99475.65;108097;1254;71364;-69
2024/04/16 00:47:11;;;;;;;6.20;3.30;;;;;;;10.61;100.00;99466.59;108085;1254;72647;-70
2024/04/16 00:49:38;;;;;;;5.90;3.10;;;;;;;10.67;100.00;99450.44;108076;1257;61751;-70
2024/04/16 00:52:06;;;;;;;4.90;3.10;;;;;;;10.68;100.00;99438.58;108203;1253;60179;-69
2024/04/16 00:54:33;;;;;;;5.70;3.20;;;;;;;10.66;100.00;99437.73;108166;1253;72912;-71
2024/04/16 00:57:01;;;;;;;6.90;3.50;;;;;;;10.66;100.00;99432.52;108127;1254;72715;-71
2024/04/16 00:59:28;;;;;;;4.80;3.00;;;;;;;10.72;100.00;99414.73;108147;1254;70605;-71
2024/04/16 01:01:55;;;;;;;6.50;3.10;;;;;;;10.73;100.00;99392.38;107951;1254;61823;-70
2024/04/16 01:04:25;;;;;;;6.70;3.60;;;;;;;10.64;100.00;99363.52;108118;1254;60371;-71
2024/04/16 01:06:52;;;;;;;7.20;3.90;;;;;;;10.49;100.00;99347.96;108143;1258;74220;-70
2024/04/16 01:09:19;;;;;;;6.60;3.90;;;;;;;10.31;100.00;99346.51;108152;1254;72649;-71
2024/04/16 01:11:46;;;;;;;7.50;4.20;;;;;;;10.15;100.00;99326.45;108153;1254;72415;-71
2024/04/16 01:26:12;;;;;;;6.20;4.30;;;;;;;10.18;100.00;99327.70;105902;1281;613376;-69
2024/04/16 01:28:40;;;;;;;6.70;4.30;;;;;;;10.28;100.00;99326.11;107332;1266;147329;-69
2024/04/16 01:31:09;;;;;;;6.60;4.50;;;;;;;10.22;100.00;99336.56;107490;1264;59361;-69
2024/04/16 01:33:36;;;;;;;7.80;4.90;;;;;;;10.21;100.00;99362.98;107371;1269;71743;-69
2024/04/16 01:36:05;;;;;;;8.00;5.00;;;;;;;10.30;100.00;99371.02;107344;1266;72479;-69
2024/04/16 01:38:32;;;;;;;8.30;4.60;;;;;;;10.43;100.00;99373.61;107442;1264;72828;-69
2024/04/16 01:41:02;;;;;;;7.50;4.90;;;;;;;10.44;100.00;99369.52;107385;1264;61739;-69
2024/04/16 01:43:30;;;;;;;7.60;4.60;;;;;;;10.39;100.00;99384.29;107411;1264;59985;-69
2024/04/16 01:45:58;;;;;;;8.90;5.70;;;;;;;10.36;100.00;99371.19;107377;1264;72075;-69
2024/04/16 01:48:25;;;;;;;7.30;5.30;;;;;;;10.32;100.00;99370.69;107361;1267;72964;-69
2024/04/16 01:50:53;;;;;;;8.60;5.30;;;;;;;10.27;100.00;99373.99;107346;1265;72691;-71
2024/04/16 01:53:20;;;;;;;8.70;5.80;;;;;;;10.26;100.00;99375.23;107399;1265;60380;-70
2024/04/16 01:55:48;;;;;;;9.30;6.10;;;;;;;10.24;100.00;99370.75;107342;1266;60354;-69
2024/04/16 01:58:15;;;;;;;8.00;5.70;;;;;;;10.23;100.00;99367.92;107494;1265;72627;-69
2024/04/16 02:00:43;;;;;;;8.70;6.20;;;;;;;10.20;100.00;99365.02;107422;1267;72746;-69
2024/04/16 02:03:10;;;;;;;9.30;5.40;;;;;;;10.18;100.00;99352.95;107322;1265;72667;-70
2024/04/16 02:05:40;;;;;;;9.80;5.60;;;;;;;10.13;100.00;99350.05;107232;1267;61708;-70
2024/04/16 02:08:07;;;;;;;7.20;4.40;;;;;;;10.07;100.00;99356.08;107435;1267;60965;-70
2024/04/16 02:10:38;;;;;;;8.40;4.90;;;;;;;10.07;100.00;99358.80;107400;1266;73886;-69
2024/04/16 02:13:06;;;;;;;7.10;4.90;;;;;;;10.06;100.00;99357.74;107409;1266;71679;-70
2024/04/16 02:15:33;;;;;;;7.40;4.30;;;;;;;10.06;100.00;99378.77;107783;1257;71415;-70
2024/04/16 02:18:02;;;;;;;5.40;3.80;;;;;;;10.05;100.00;99429.64;107748;1260;61682;-70
2024/04/16 02:20:30;;;;;;;6.00;3.90;;;;;;;10.02;100.00;99469.89;107739;1257;59490;-70
2024/04/16 02:22:57;;;;;;;6.30;4.00;;;;;;;9.90;100.00;99480.98;107841;1262;73829;-69
2024/04/16 02:25:25;;;;;;;5.90;3.90;;;;;;;9.90;100.00;99467.58;107814;1257;72754;-70
2024/04/16 02:27:54;;;;;;;8.80;4.50;;;;;;;9.88;100.00;99452.30;107685;1257;72718;-68
2024/04/16 02:30:22;;;;;;;8.40;4.60;;;;;;;9.94;100.00;99447.12;107842;1257;62031;-69
2024/04/16 02:32:49;;;;;;;6.60;4.30;;;;;;;10.02;100.00;99449.29;107837;1263;60063;-70
2024/04/16 02:35:18;;;;;;;6.80;4.30;;;;;;;10.10;100.00;99455.05;107814;1257;73974;-71
2024/04/16 02:37:48;;;;;;;7.00;4.70;;;;;;;10.14;100.00;99455.96;107875;1262;72840;-69
2024/04/16 02:40:16;;;;;;;10.40;5.00;;;;;;;10.18;100.00;99465.59;107846;1257;73174;-71
2024/04/16 02:42:45;;;;;;;7.30;4.50;;;;;;;10.24;100.00;99469.44;107820;1257;60453;-69
2024/04/16 02:45:12;;;;;;;7.40;4.50;;;;;;;10.28;100.00;99475.55;107829;1257;60360;-69
2024/04/16 02:47:42;;;;;;;7.90;4.40;;;;;;;10.32;100.00;99471.84;107710;1263;73906;-70
2024/04/16 02:50:10;;;;;;;8.00;4.50;;;;;;;10.37;100.00;99456.48;107879;1257;72411;-69
2024/04/16 02:52:38;;;;;;;7.50;4.30;;;;;;;10.40;100.00;99447.15;107812;1257;72149;-70
2024/04/16 02:55:08;;;;;;;8.10;4.50;;;;;;;10.44;100.00;99444.08;107804;1260;62174;-71
2024/04/16 02:57:37;;;;;;;7.00;4.60;;;;;;;10.49;100.00;99439.77;107837;1257;60451;-69
2024/04/16 03:00:06;;;;;;;7.70;4.40;;;;;;;10.52;100.00;99430.20;107740;1257;73757;-69
2024/04/16 03:02:34;;;;;;;6.30;4.30;;;;;;;10.44;100.00;99416.37;107976;1257;71603;-71
2024/04/16 03:05:01;;;;;;;7.00;4.40;;;;;;;10.33;100.00;99403.94;107824;1257;72639;-71
2024/04/16 03:07:29;;;;;;;6.90;4.10;;;;;;;10.24;100.00;99396.10;107787;1257;60550;-69
2024/04/16 03:09:57;;;;;;;6.70;4.20;;;;;;;10.15;100.00;99381.67;107904;1262;59303;-70
2024/04/16 03:12:24;;;;;;;8.80;4.00;;;;;;;10.06;100.00;99376.42;107852;1257;72896;-70
2024/04/16 03:14:52;;;;;;;6.30;4.00;;;;;;;9.98;100.00;99374.48;107856;1257;71389;-70
2024/04/16 03:17:20;;;;;;;5.90;3.40;;;;;;;9.91;100.00;99366.50;107843;1257;71359;-69
2024/04/16 03:19:48;;;;;;;4.80;3.20;;;;;;;9.82;100.00;99350.89;107852;1257;60736;-71
2024/04/16 03:22:16;;;;;;;7.70;3.70;;;;;;;9.74;100.00;99333.48;107870;1257;60311;-70
2024/04/16 03:24:44;;;;;;;6.90;4.10;;;;;;;9.65;100.00;99313.30;107825;1257;73878;-70
2024/04/16 03:27:11;;;;;;;5.80;3.90;;;;;;;9.59;100.00;99316.70;107917;1257;72509;-70
2024/04/16 03:29:39;;;;;;;6.30;4.40;;;;;;;9.58;100.00;99322.21;107879;1257;73025;-70
2024/04/16 03:32:07;;;;;;;7.40;4.80;;;;;;;9.56;100.00;99319.60;107798;1258;61856;-72
2024/04/16 03:34:36;;;;;;;7.70;4.60;;;;;;;9.54;100.00;99316.01;107773;1257;60342;-70
2024/04/16 03:37:03;;;;;;;7.50;5.20;;;;;;;9.54;100.00;99311.58;107921;1257;73905;-69
2024/04/16 03:39:32;;;;;;;8.30;5.50;;;;;;;9.54;100.00;99307.42;107910;1257;71681;-69
2024/04/16 03:41:59;;;;;;;10.20;6.40;;;;;;;9.54;100.00;99305.83;107844;1257;72716;-70
2024/04/16 03:44:27;;;;;;;9.40;5.80;;;;;;;9.56;100.00;99300.53;107749;1257;60548;-69
2024/04/16 03:46:56;;;;;;;6.80;4.90;;;;;;;9.56;100.00;99291.51;107822;1257;60299;-69
2024/04/16 03:49:26;;;;;;;6.90;4.40;;;;;;;9.57;100.00;99280.62;107847;1257;73713;-68
2024/04/16 03:51:55;;;;;;;8.30;4.80;;;;;;;9.58;100.00;99276.79;107905;1257;71336;-69
2024/04/16 03:54:23;;;;;;;7.00;4.90;;;;;;;9.58;100.00;99277.37;107777;1257;70438;-71
2024/04/16 03:56:50;;;;;;;7.00;4.70;;;;;;;9.59;100.00;99273.79;107842;1257;61773;-70
2024/04/16 03:59:38;;;;;;;8.30;5.00;;;;;;;9.57;100.00;99273.16;107845;1257;60344;-70
2024/04/16 04:02:06;;;;;;;8.50;5.10;;;;;;;9.58;100.00;99270.44;107851;1257;73085;-70
2024/04/16 04:04:34;;;;;;;7.80;5.30;;;;;;;9.58;100.00;99267.23;107869;1257;70483;-70
2024/04/16 04:07:02;;;;;;;10.10;5.30;;;;;;;9.62;100.00;99265.23;107838;1257;73169;-70
2024/04/16 04:09:29;;;;;;;7.80;5.00;;;;;;;9.67;100.00;99267.36;107786;1257;60382;-70
2024/04/16 04:11:57;;;;;;;7.30;5.00;;;;;;;9.76;100.00;99272.92;107807;1257;60450;-71
2024/04/16 04:14:25;;;;;;;8.60;5.70;;;;;;;9.86;100.00;99268.86;107789;1257;73147;-70
2024/04/16 04:16:52;;;;;;;7.20;5.10;;;;;;;9.98;100.00;99269.12;107816;1257;70153;-69
2024/04/16 04:19:20;;;;;;;7.10;4.80;;;;;;;10.12;100.00;99261.92;107790;1262;71413;-69
2024/04/16 04:21:47;;;;;;;8.30;5.60;;;;;;;10.14;100.00;99263.17;107803;1257;60500;-69
2024/04/16 04:24:17;;;;;;;10.30;6.40;;;;;;;10.14;100.00;99264.88;107803;1257;60244;-69
2024/04/16 04:27:02;;;;;;;7.80;4.90;;;;;;;10.16;100.00;99255.45;107828;1257;73826;-71
2024/04/16 04:29:30;;;;;;;7.80;6.40;;;;;;;10.17;100.00;99255.55;107812;1257;71116;-69
2024/04/16 04:31:58;;;;;;;10.10;5.80;;;;;;;10.20;100.00;99254.28;107833;1257;72457;-70
2024/04/16 04:34:26;;;;;;;9.30;6.10;;;;;;;10.21;100.00;99254.55;107859;1257;60391;-70
2024/04/16 04:36:54;;;;;;;9.30;6.50;;;;;;;10.18;100.00;99250.52;107831;1257;60451;-68
2024/04/16 04:39:21;;;;;;;8.30;6.50;;;;;;;10.15;100.00;99255.00;107942;1258;72580;-70
2024/04/16 04:41:49;;;;;;;10.10;6.90;;;;;;;10.15;100.00;99261.34;107717;1257;71743;-69
2024/04/16 04:44:20;;;;;;;7.60;6.00;;;;;;;10.15;100.00;99273.30;107870;1257;72424;-70
2024/04/16 04:46:47;;;;;;;9.70;6.10;;;;;;;10.19;100.00;99290.04;107890;1257;61726;-70
2024/04/16 04:49:15;;;;;;;8.30;6.40;;;;;;;10.25;100.00;99314.13;107842;1257;60223;-69
2024/04/16 04:51:43;;;;;;;8.50;5.60;;;;;;;10.30;100.00;99346.27;107858;1257;72776;-69
2024/04/16 04:54:11;;;;;;;9.50;7.30;;;;;;;10.37;100.00;99368.20;107814;1257;72617;-69
2024/04/16 04:56:38;;;;;;;9.30;6.60;;;;;;;10.43;100.00;99380.18;107887;1257;71497;-70
2024/04/16 04:59:09;;;;;;;9.60;6.60;;;;;;;10.46;100.00;99381.96;107884;1260;63921;-70
2024/04/16 05:01:38;;;;;;;7.90;5.70;;;;;;;10.45;100.00;99376.84;107830;1260;59585;-69
2024/04/16 05:04:06;;;;;;;8.20;6.20;;;;;;;10.47;100.00;99377.57;107744;1257;74262;-70
2024/04/16 05:06:34;;;;;;;8.50;5.90;;;;;;;10.47;100.00;99373.36;107889;1257;72355;-70
2024/04/16 05:09:02;;;;;;;8.70;5.80;;;;;;;10.46;100.00;99375.45;107664;1257;72908;-70
2024/04/16 05:11:30;;;;;;;9.20;6.40;;;;;;;10.49;100.00;99371.98;107811;1260;61811;-70
2024/04/16 05:13:57;;;;;;;8.70;5.70;;;;;;;10.52;100.00;99366.67;107800;1257;60322;-69
2024/04/16 05:16:25;;;;;;;9.30;6.40;;;;;;;10.55;100.00;99368.50;107763;1262;73953;-69
2024/04/16 05:18:52;;;;;;;8.50;5.40;;;;;;;10.62;100.00;99374.36;107859;1257;73837;-70
2024/04/16 05:21:20;;;;;;;6.30;5.00;;;;;;;10.70;100.00;99375.80;107812;1262;74963;-70
2024/04/16 05:23:50;;;;;;;8.60;6.00;;;;;;;10.76;100.00;99364.71;107799;1260;61914;-70
2024/04/16 05:26:19;;;;;;;6.60;4.70;;;;;;;10.79;100.00;99355.70;107826;1257;61039;-69
2024/04/16 05:28:48;;;;;;;7.60;5.50;;;;;;;10.81;100.00;99348.20;107865;1257;76161;-69
2024/04/16 05:31:16;;;;;;;7.60;5.40;;;;;;;10.79;100.00;99344.42;107880;1262;74725;-69
2024/04/16 05:33:45;;;;;;;8.30;5.90;;;;;;;10.78;100.00;99341.08;107861;1257;73384;-69
2024/04/16 05:36:12;;;;;;;8.00;5.50;;;;;;;10.79;100.00;99326.10;107859;1257;61020;-70
2024/04/16 05:38:40;;;;;;;7.60;6.10;;;;;;;10.83;100.00;99317.56;107791;1257;60150;-69
2024/04/16 05:41:07;;;;;;;7.70;6.20;;;;;;;10.88;100.00;99311.72;107689;1257;74445;-69
2024/04/16 05:43:35;;;;;;;9.70;7.10;;;;;;;10.97;100.00;99302.40;107779;1257;72547;-69
2024/04/16 05:46:03;;;;;;;9.80;7.80;;;;;;;11.11;100.00;99302.40;107781;1260;71818;-71
2024/04/16 05:48:31;;;;;;;9.50;7.80;;;;;;;11.28;100.00;99292.78;107836;1257;60802;-69
2024/04/16 05:50:59;;;;;;;10.10;8.50;;;;;;;11.48;100.00;99295.66;107843;1257;62461;-70
2024/04/16 05:53:26;;;;;;;11.60;8.30;;;;;;;11.66;100.00;99306.38;107824;1257;77000;-69
2024/04/16 05:55:54;;;;;;;9.60;8.00;;;;;;;11.76;100.00;99311.66;107786;1262;71691;-69
2024/04/16 05:58:22;;;;;;;10.30;8.00;;;;;;;11.84;100.00;99315.52;107979;1259;72668;-70
2024/04/16 06:00:50;;;;;;;9.60;7.60;;;;;;;11.97;100.00;99311.61;108078;1258;62872;-69
2024/04/16 06:03:18;;;;;;;8.50;7.60;;;;;;;12.13;100.00;99310.58;108018;1254;61212;-69
2024/04/16 06:05:47;;;;;;;10.50;7.50;;;;;;;12.29;100.00;99305.75;108046;1257;74843;-69
2024/04/16 06:08:15;;;;;;;8.80;6.60;;;;;;;12.43;100.00;99310.71;108075;1260;71798;-70
2024/04/16 06:10:44;;;;;;;8.50;6.70;;;;;;;12.49;100.00;99315.60;108035;1255;72384;-70
2024/04/16 06:13:11;;;;;;;9.70;7.70;;;;;;;12.43;100.00;99313.77;108115;1255;62081;-69
2024/04/16 06:15:39;;;;;;;8.80;6.40;;;;;;;12.39;100.00;99318.67;107871;1254;62262;-68
2024/04/16 06:18:09;;;;;;;8.30;6.90;;;;;;;12.36;100.00;99314.39;108033;1255;75756;-69
2024/04/16 06:20:38;;;;;;;12.20;7.60;;;;;;;12.37;100.00;99320.42;108115;1257;75122;-69
2024/04/16 06:23:06;;;;;;;12.40;8.00;;;;;;;12.41;100.00;99320.09;108026;1257;72997;-69
2024/04/16 06:25:33;;;;;;;19.20;11.30;;;;;;;12.49;100.00;99315.69;107984;1257;61061;-69
2024/04/16 06:28:02;;;;;;;16.20;9.30;;;;;;;12.61;100.00;99304.09;108073;1254;61315;-68
2024/04/16 06:30:29;;;;;;;12.30;7.60;;;;;;;12.65;100.00;99307.16;108176;1254;74724;-71
2024/04/16 06:32:57;;;;;;;16.40;11.00;;;;;;;12.62;100.00;99311.35;108003;1254;75091;-68
2024/04/16 06:35:26;;;;;;;11.40;8.20;;;;;;;12.67;100.00;99310.48;107956;1255;73090;-68
2024/04/16 06:37:54;;;;;;;9.70;6.80;;;;;;;12.81;100.00;99312.91;108007;1260;63984;-70
2024/04/16 06:40:22;;;;;;;20.20;12.20;;;;;;;12.89;100.00;99299.33;108116;1257;61113;-69
2024/04/16 06:42:54;;;;;;;11.20;8.20;;;;;;;13.01;100.00;99293.21;108013;1257;76920;-70
2024/04/16 06:45:23;;;;;;;12.70;8.30;;;;;;;13.25;100.00;99286.77;107993;1260;73394;-69
2024/04/16 06:47:50;;;;;;;9.40;7.50;;;;;;;13.48;100.00;99279.39;107989;1260;71088;-70
2024/04/16 06:50:21;;;;;;;10.70;8.20;;;;;;;13.72;100.00;99273.10;107983;1256;61799;-69
2024/04/16 06:52:54;;;;;;;8.90;6.50;;;;;;;13.96;100.00;99265.09;108057;1257;61249;-71
2024/04/16 06:55:22;;;;;;;9.80;8.00;;;;;;;14.19;100.00;99267.34;108047;1257;77108;-70
2024/04/16 06:57:50;;;;;;;11.60;8.50;;;;;;;14.36;100.00;99258.67;108148;1257;73774;-69
2024/04/16 07:00:20;;;;;;;11.20;8.10;;;;;;;14.49;100.00;99255.42;107984;1257;73175;-68
2024/04/16 07:02:48;;;;;;;11.40;8.30;;;;;;;14.55;100.00;99257.95;108111;1254;62651;-69
2024/04/16 07:05:16;;;;;;;11.80;7.60;;;;;;;14.55;100.00;99258.39;107829;1256;62229;-69
2024/04/16 07:07:45;;;;;;;12.60;8.20;;;;;;;14.53;100.00;99255.64;107950;1257;76750;-69
2024/04/16 07:10:12;;;;;;;9.70;8.00;;;;;;;14.45;100.00;99249.62;107938;1258;75144;-70
2024/04/16 07:12:40;;;;;;;9.30;7.50;;;;;;;14.51;100.00;99256.00;107998;1257;73849;-68
2024/04/16 07:15:09;;;;;;;9.90;8.30;;;;;;;14.68;100.00;99251.98;108001;1257;64257;-68
2024/04/16 07:17:37;;;;;;;10.00;8.30;;;;;;;14.81;100.00;99242.27;107994;1260;61403;-68
2024/04/16 07:20:05;;;;;;;9.70;8.20;;;;;;;14.91;100.00;99242.80;108054;1257;75330;-69
2024/04/16 07:22:33;;;;;;;13.20;9.00;;;;;;;14.94;100.00;99253.59;107973;1259;71682;-70
2024/04/16 07:25:03;;;;;;;9.40;7.60;;;;;;;14.99;100.00;99263.11;107906;1260;74834;-68
2024/04/16 07:27:31;;;;;;;10.20;8.20;;;;;;;15.09;100.00;99271.08;107975;1257;61416;-69
2024/04/16 07:29:59;;;;;;;10.70;8.10;;;;;;;15.22;100.00;99261.73;107939;1254;61189;-71
2024/04/16 07:32:27;;;;;;;9.30;7.40;;;;;;;15.38;100.00;99257.77;107942;1254;77543;-70
2024/04/16 07:34:55;;;;;;;12.10;8.00;;;;;;;15.49;100.00;99256.50;107996;1255;72436;-69
2024/04/16 07:37:25;;;;;;;10.50;8.40;;;;;;;15.58;100.00;99253.84;108059;1257;74932;-70
2024/04/16 07:39:53;;;;;;;11.40;8.40;;;;;;;15.63;100.00;99241.92;107935;1254;62886;-68
2024/04/16 07:42:20;;;;;;;11.00;8.10;;;;;;;15.66;100.00;99242.21;107975;1257;61180;-68
2024/04/16 07:44:48;;;;;;;10.40;8.70;;;;;;;15.69;100.00;99242.35;107911;1257;73634;-69
2024/04/16 07:47:15;;;;;;;10.10;7.70;;;;;;;15.71;100.00;99244.89;107984;1257;71949;-68
2024/04/16 07:49:43;;;;;;;12.60;8.00;;;;;;;15.82;100.00;99232.25;107901;1260;73653;-69
2024/04/16 07:52:10;;;;;;;10.40;8.30;;;;;;;15.97;100.00;99217.51;108020;1257;62255;-70
2024/04/16 07:54:38;;;;;;;11.10;8.60;;;;;;;16.07;100.00;99216.12;108061;1261;61083;-69
2024/04/16 07:57:08;;;;;;;11.40;7.90;;;;;;;16.17;100.00;99222.36;108025;1255;74139;-70
2024/04/16 07:59:37;;;;;;;12.60;8.90;;;;;;;16.30;100.00;99226.40;107987;1258;72975;-71
2024/04/16 08:02:06;;;;;;;9.60;7.60;;;;;;;16.40;100.00;99231.00;107989;1257;71412;-70
2024/04/16 08:04:34;;;;;;;9.90;7.50;;;;;;;16.47;100.00;99235.73;107965;1257;61158;-69
2024/04/16 08:07:02;;;;;;;10.50;7.40;;;;;;;16.52;100.00;99237.54;107974;1255;61286;-71
2024/04/16 08:09:30;;;;;;;11.50;8.10;;;;;;;16.52;100.00;99235.21;107999;1255;72882;-70
2024/04/16 08:11:58;;;;;;;9.80;7.30;;;;;;;16.54;100.00;99242.71;108081;1254;74112;-70
2024/04/16 08:14:26;;;;;;;10.00;7.30;;;;;;;16.65;100.00;99237.34;108070;1254;71530;-69
2024/04/16 08:16:53;;;;;;;10.40;7.70;;;;;;;16.75;100.00;99236.86;107965;1258;62043;-69
2024/04/16 08:19:21;;;;;;;9.80;7.50;;;;;;;16.83;100.00;99232.52;107915;1258;62275;-70
2024/04/16 08:21:50;;;;;;;10.40;7.90;;;;;;;16.91;100.00;99232.12;107971;1258;74985;-71
2024/04/16 08:24:20;;;;;;;11.10;7.20;;;;;;;16.96;100.00;99225.29;108016;1257;75069;-69
2024/04/16 08:26:47;;;;;;;8.50;6.80;;;;;;;17.04;100.00;99232.12;107863;1257;71847;-70
2024/04/16 08:29:15;;;;;;;9.80;6.80;;;;;;;17.15;100.00;99227.94;108035;1260;63234;-68
2024/04/16 08:31:43;;;;;;;10.10;7.60;;;;;;;17.18;100.00;99229.91;108052;1256;61215;-71
2024/04/16 08:34:12;;;;;;;10.50;6.90;;;;;;;17.22;100.00;99228.44;107972;1254;74464;-70
2024/04/16 08:36:40;;;;;;;11.80;7.90;;;;;;;17.27;100.00;99228.27;108039;1258;71695;-72
2024/04/16 08:39:10;;;;;;;9.20;6.90;;;;;;;17.33;100.00;99226.04;108013;1256;71597;-70
2024/04/16 08:41:37;;;;;;;10.80;7.50;;;;;;;17.39;100.00;99222.03;108000;1257;61039;-72
2024/04/16 08:44:06;;;;;;;11.20;7.50;;;;;;;17.45;100.00;99221.77;108141;1256;60414;-69
2024/04/16 08:46:37;;;;;;;12.00;7.40;;;;;;;17.51;100.00;99218.14;107944;1257;76773;-70
2024/04/16 08:49:05;;;;;;;12.10;7.50;;;;;;;17.57;99.04;99214.49;107996;1258;75027;-71
2024/04/16 08:51:36;;;;;;;11.40;7.40;;;;;;;17.61;99.04;99204.18;108007;1256;73906;-70
2024/04/16 08:54:05;;;;;;;11.10;7.30;;;;;;;17.68;99.39;99202.39;107921;1257;61258;-69
2024/04/16 08:56:34;;;;;;;10.70;7.70;;;;;;;17.75;99.64;99206.20;108031;1257;61129;-67
2024/04/16 08:59:02;;;;;;;11.20;7.00;;;;;;;17.83;98.13;99200.35;108094;1254;74777;-69
2024/04/16 09:01:30;;;;;;;12.30;8.10;;;;;;;17.88;97.82;99199.03;108023;1257;72910;-69
2024/04/16 09:03:57;;;;;;;13.20;8.50;;;;;;;17.96;98.04;99201.48;107790;1257;71054;-68
2024/04/16 09:06:25;;;;;;;13.70;7.60;;;;;;;18.05;97.42;99197.19;108015;1256;61745;-69
2024/04/16 09:08:52;;;;;;;10.40;6.70;;;;;;;18.15;97.31;99198.34;107847;1255;61230;-69
2024/04/16 09:11:35;;;;;;;10.10;7.20;;;;;;;18.23;95.79;99194.55;108058;1257;76025;-68
2024/04/16 09:14:03;;;;;;;12.50;6.80;;;;;;;18.30;95.76;99192.13;107999;1257;72184;-69
2024/04/16 09:16:32;;;;;;;10.20;6.70;;;;;;;18.44;96.94;99189.59;107984;1260;74765;-69
2024/04/16 09:19:14;;;;;;;11.60;7.10;;;;;;;18.53;96.29;99184.75;107998;1256;61275;-69
2024/04/16 09:21:43;;;;;;;10.10;6.40;;;;;;;18.60;95.29;99176.36;107985;1256;61173;-68
2024/04/16 09:24:11;;;;;;;10.50;6.70;;;;;;;18.66;94.75;99175.22;107984;1257;74451;-68
2024/04/16 09:26:39;;;;;;;9.40;5.90;;;;;;;18.73;93.39;99176.60;107930;1257;75029;-68
2024/04/16 09:29:08;;;;;;;7.90;5.70;;;;;;;18.81;93.39;99176.90;107973;1257;73559;-69
2024/04/16 09:31:36;;;;;;;8.20;5.50;;;;;;;19.00;93.97;99179.48;107919;1257;61290;-69
2024/04/16 09:34:11;;;;;;;7.20;4.80;;;;;;;19.22;92.64;99177.04;108002;1255;61240;-69
2024/04/16 09:36:49;;;;;;;8.80;4.70;;;;;;;19.40;89.43;99170.61;108066;1255;73928;-70
2024/04/16 09:39:25;;;;;;;7.80;4.10;;;;;;;19.51;86.80;99164.75;107959;1257;73440;-68
2024/04/16 09:41:58;;;;;;;10.40;5.10;;;;;;;19.54;83.33;99163.98;107966;1258;72536;-69
2024/04/16 09:44:28;;;;;;;7.60;4.50;;;;;;;19.58;83.78;99166.92;107958;1259;61140;-70
2024/04/16 09:46:58;;;;;;;7.10;3.80;;;;;;;19.71;83.27;99168.35;107886;1254;61135;-69
2024/04/16 09:49:28;;;;;;;7.70;4.70;;;;;;;19.88;83.00;99167.88;107901;1254;77130;-70
2024/04/16 09:52:24;;;;;;;7.70;4.80;;;;;;;20.09;82.54;99164.31;107920;1257;72627;-70
2024/04/16 09:55:03;;;;;;;6.40;4.40;;;;;;;20.15;79.94;99161.36;108004;1257;75079;-69
2024/04/16 09:57:49;;;;;;;9.30;4.80;;;;;;;20.07;77.94;99159.92;107760;1256;61241;-70
2024/04/16 10:00:37;;;;;;;6.50;3.90;;;;;;;19.91;78.63;99156.96;107813;1256;61041;-69
2024/04/16 10:03:13;;;;;;;7.60;4.00;;;;;;;19.81;79.14;99156.67;107727;1258;77050;-69
2024/04/16 10:06:24;;;;;;;7.30;3.80;;;;;;;19.74;79.43;99159.44;108129;1256;72766;-69
2024/04/16 10:08:54;;;;;;;8.70;4.80;;;;;;;19.65;79.78;99160.79;107994;1257;75072;-68
2024/04/16 10:11:22;;;;;;;6.80;4.10;;;;;;;19.59;80.17;99162.09;108080;1257;61285;-68
2024/04/16 10:13:59;;;;;;;6.40;3.50;;;;;;;19.62;80.66;99159.59;108027;1254;61077;-69
2024/04/16 10:16:27;;;;;;;8.20;4.30;;;;;;;19.67;81.23;99150.55;107988;1257;73707;-69
2024/04/16 10:18:56;;;;;;;6.30;3.80;;;;;;;19.85;82.17;99139.55;108071;1255;75064;-69
2024/04/16 10:21:26;;;;;;;6.70;3.20;;;;;;;20.12;80.75;99139.08;107996;1257;72842;-69
2024/04/16 10:24:01;;;;;;;6.00;3.00;;;;;;;20.26;75.39;99141.29;108121;1257;60997;-69
2024/04/16 10:26:36;;;;;;;7.00;3.20;;;;;;;20.23;73.90;99141.39;107997;1256;62183;-69
2024/04/16 10:29:17;;;;;;;5.20;3.00;;;;;;;20.18;73.68;99139.04;107907;1256;76907;-68
2024/04/16 10:31:50;;;;;;;7.10;3.20;;;;;;;20.13;74.15;99133.67;107961;1256;74794;-68
2024/04/16 10:34:21;;;;;;;;;;;;;;;20.26;75.39;99143.14;108039;1256;71508;-69
2024/04/16 10:36:52;;;;;;;4.70;3.20;;;;;;;20.43;74.20;99145.80;108103;1256;61435;-69
2024/04/16 10:39:27;;;;;;;8.20;4.00;;;;;;;20.58;72.56;99142.09;107967;1255;61122;-69
2024/04/16 10:41:58;;;;;;;6.10;3.60;;;;;;;20.63;70.63;99141.65;107950;1257;74476;-68
2024/04/16 10:44:27;;;;;;;6.60;3.80;;;;;;;20.71;71.11;99141.27;107936;1254;72730;-69
2024/04/16 10:46:56;;;;;;;6.30;3.40;;;;;;;20.88;69.73;99141.50;108014;1257;72503;-70
2024/04/16 10:49:26;;;;;;;6.40;3.60;;;;;;;20.95;69.44;99142.93;108027;1257;62862;-69
2024/04/16 10:51:54;;;;;;;6.00;4.40;;;;;;;20.89;67.44;99144.23;107946;1254;61161;-69
2024/04/16 10:54:22;;;;;;;7.90;4.50;;;;;;;20.66;66.60;99135.98;107839;1255;73344;-70
2024/04/16 10:56:50;;;;;;;8.20;4.60;;;;;;;20.60;67.66;99137.11;107986;1259;71683;-69
2024/04/16 10:59:18;;;;;;;7.50;4.20;;;;;;;20.70;68.54;99136.90;108095;1257;74927;-70
2024/04/16 11:01:46;;;;;;;6.80;4.40;;;;;;;20.84;69.44;99136.94;108140;1257;59492;-70
2024/04/16 11:04:18;;;;;;;8.40;5.00;;;;;;;21.00;69.33;99136.91;107904;1255;61077;-69
2024/04/16 11:06:46;;;;;;;7.20;4.70;;;;;;;21.17;67.49;99126.72;108033;1254;74975;-70
2024/04/16 11:09:15;;;;;;;6.90;4.90;;;;;;;21.28;66.36;99129.61;108066;1257;73541;-69
2024/04/16 11:11:43;;;;;;;8.00;5.20;;;;;;;21.35;64.95;99124.23;108035;1254;70798;-70
2024/04/16 11:14:11;;;;;;;7.00;4.60;;;;;;;21.36;65.39;99115.70;108048;1254;60291;-70
2024/04/16 11:16:40;;;;;;;7.60;5.10;;;;;;;21.48;66.12;99108.16;107988;1255;62169;-70
2024/04/16 11:19:08;;;;;;;9.50;5.30;;;;;;;21.66;66.02;99105.48;107970;1257;74723;-68
2024/04/16 11:21:36;;;;;;;7.30;4.90;;;;;;;21.83;65.15;99099.41;108055;1255;73144;-70
2024/04/16 11:24:06;;;;;;;5.60;4.10;;;;;;;22.02;64.23;99103.77;108174;1254;73645;-69
2024/04/16 11:26:34;;;;;;;7.00;4.70;;;;;;;22.26;64.01;99098.50;107804;1254;62447;-70
2024/04/16 11:29:01;;;;;;;7.40;4.80;;;;;;;22.42;61.75;99090.61;107945;1254;60990;-68
2024/04/16 11:31:29;;;;;;;6.40;4.60;;;;;;;22.52;59.40;99083.17;108210;1254;75132;-68
2024/04/16 11:33:58;;;;;;;6.10;4.60;;;;;;;22.53;57.79;99078.76;107994;1254;72019;-67
2024/04/16 11:36:27;;;;;;;6.70;4.60;;;;;;;22.48;58.26;99071.32;107813;1254;75108;-69
2024/04/16 11:38:55;;;;;;;8.00;5.30;;;;;;;22.51;59.19;99066.37;108000;1254;62397;-69